Time;durP1;ratioP1;P1;durP2;ratioP2;P2;SDS_P1;SDS_P2;PMS_P1;PMS_P2;Temp;Humidity;BMP_temperature;BMP_pressure;BME280_temperature;BME280_humidity;BME280_pressure;Samples;Min_cycle;Max_cycle;Signal;HPM_P1;HPM_P2
2023/10/15 00:00:13;;;;;;;4.33;1.30;;;;;;;;;;5108909;28;20226;-64
2023/10/15 00:02:44;;;;;;;4.93;2.23;;;;;;;;;;5103892;28;20197;-64
2023/10/15 00:05:15;;;;;;;3.30;1.50;;;;;;;;;;5112884;28;20220;-64
2023/10/15 00:07:43;;;;;;;2.27;1.03;;;;;;;;;;5119054;28;20236;-64
2023/10/15 00:10:14;;;;;;;3.53;1.40;;;;;;;;;;5111968;28;20225;-64
2023/10/15 00:12:43;;;;;;;3.17;1.30;;;;;;;;;;5100930;28;20214;-64
2023/10/15 00:15:15;;;;;;;7.50;1.70;;;;;;;;;;5100415;28;20216;-64
2023/10/15 00:17:43;;;;;;;2.80;1.20;;;;;;;;;;5117913;28;20241;-64
2023/10/15 00:20:16;;;;;;;4.50;1.50;;;;;;;;;;5120986;28;20285;-64
2023/10/15 00:22:44;;;;;;;6.33;1.57;;;;;;;;;;5121241;28;20253;-64
2023/10/15 00:25:14;;;;;;;2.57;1.40;;;;;;;;;;5120891;28;20236;-64
2023/10/15 00:27:42;;;;;;;3.00;1.43;;;;;;;;;;5104334;28;20669;-64
2023/10/15 00:30:13;;;;;;;2.87;1.13;;;;;;;;;;5104057;28;20306;-64
2023/10/15 00:32:43;;;;;;;5.73;1.50;;;;;;;;;;5120771;28;20209;-64
2023/10/15 00:35:12;;;;;;;4.93;1.70;;;;;;;;;;5106256;27;20201;-64
2023/10/15 00:37:54;;;;;;;2.10;1.20;;;;;;;;;;5103708;28;20279;-64
2023/10/15 00:40:23;;;;;;;4.10;1.50;;;;;;;;;;5119492;28;20224;-64
2023/10/15 00:42:51;;;;;;;2.40;1.57;;;;;;;;;;5103097;28;20288;-64
2023/10/15 00:45:21;;;;;;;5.70;1.40;;;;;;;;;;5113574;28;20333;-64
2023/10/15 00:48:00;;;;;;;3.40;1.20;;;;;;;;;;5101319;27;20213;-64
2023/10/15 00:50:31;;;;;;;2.97;1.20;;;;;;;;;;5104166;28;20292;-64
2023/10/15 00:53:03;;;;;;;4.17;1.43;;;;;;;;;;5120010;28;20212;-64
2023/10/15 00:55:35;;;;;;;4.20;1.17;;;;;;;;;;5099960;28;20285;-64
2023/10/15 00:58:07;;;;;;;2.10;1.27;;;;;;;;;;5103042;28;20206;-64
2023/10/15 01:00:51;;;;;;;4.23;1.30;;;;;;;;;;5110469;28;20231;-64
2023/10/15 01:03:30;;;;;;;4.67;1.23;;;;;;;;;;5119209;28;20197;-64
2023/10/15 01:06:00;;;;;;;2.40;1.33;;;;;;;;;;5098846;28;20237;-64
2023/10/15 01:08:34;;;;;;;4.67;1.63;;;;;;;;;;5105701;28;20514;-64
2023/10/15 01:11:10;;;;;;;5.63;1.37;;;;;;;;;;5119068;28;20262;-64
2023/10/15 01:13:38;;;;;;;3.30;1.27;;;;;;;;;;5119292;28;20196;-64
2023/10/15 01:16:10;;;;;;;5.87;1.37;;;;;;;;;;5118516;28;20200;-64
2023/10/15 01:18:38;;;;;;;4.60;1.20;;;;;;;;;;5115021;28;20285;-64
2023/10/15 01:21:09;;;;;;;4.90;1.50;;;;;;;;;;5098818;28;20217;-64
2023/10/15 01:23:54;;;;;;;3.70;1.20;;;;;;;;;;5104504;28;20197;-64
2023/10/15 01:26:25;;;;;;;2.50;1.43;;;;;;;;;;5107185;28;20226;-64
2023/10/15 01:28:53;;;;;;;4.73;1.23;;;;;;;;;;5098467;28;20209;-64
2023/10/15 01:31:24;;;;;;;3.23;1.37;;;;;;;;;;5099082;28;20311;-64
2023/10/15 01:33:53;;;;;;;3.10;1.20;;;;;;;;;;5113904;28;20220;-64
2023/10/15 01:36:27;;;;;;;2.43;1.20;;;;;;;;;;5099063;28;20210;-64
2023/10/15 01:38:57;;;;;;;2.13;1.23;;;;;;;;;;5098535;28;20192;-64
2023/10/15 01:41:27;;;;;;;1.90;1.43;;;;;;;;;;5102944;28;20308;-64
2023/10/15 01:43:56;;;;;;;2.97;1.30;;;;;;;;;;5101016;28;20202;-64
2023/10/15 01:46:45;;;;;;;3.63;1.40;;;;;;;;;;5118211;28;20266;-64
2023/10/15 01:49:18;;;;;;;3.23;1.60;;;;;;;;;;5112908;28;20265;-64
2023/10/15 01:51:47;;;;;;;3.50;1.50;;;;;;;;;;5098273;28;20230;-64
2023/10/15 01:54:16;;;;;;;4.17;1.50;;;;;;;;;;5103555;28;20556;-64
2023/10/15 01:56:45;;;;;;;4.37;1.40;;;;;;;;;;5119241;28;20279;-64
2023/10/15 01:59:16;;;;;;;5.33;1.73;;;;;;;;;;5116519;28;20199;-64
2023/10/15 02:01:49;;;;;;;4.10;1.40;;;;;;;;;;5100772;28;20230;-64
2023/10/15 02:04:21;;;;;;;4.47;1.43;;;;;;;;;;5102304;28;20198;-64
2023/10/15 02:06:51;;;;;;;4.03;1.53;;;;;;;;;;5101780;28;20222;-64
2023/10/15 02:09:22;;;;;;;4.13;1.50;;;;;;;;;;5098178;28;20343;-64
2023/10/15 02:11:54;;;;;;;6.40;1.67;;;;;;;;;;5098536;28;20702;-64
2023/10/15 02:14:27;;;;;;;1.70;1.30;;;;;;;;;;5098291;28;20214;-64
2023/10/15 02:16:55;;;;;;;6.70;1.63;;;;;;;;;;5117699;28;20196;-64
2023/10/15 02:19:34;;;;;;;2.97;1.23;;;;;;;;;;5118558;28;20208;-63
2023/10/15 02:22:03;;;;;;;2.50;1.30;;;;;;;;;;5118780;28;20320;-63
2023/10/15 02:24:34;;;;;;;4.83;1.23;;;;;;;;;;5112693;28;20195;-63
2023/10/15 02:27:06;;;;;;;4.40;1.30;;;;;;;;;;5098346;28;20298;-63
2023/10/15 02:29:37;;;;;;;2.07;0.83;;;;;;;;;;5097368;28;20206;-63
2023/10/15 02:32:20;;;;;;;3.57;1.43;;;;;;;;;;5097395;28;20629;-64
2023/10/15 02:34:51;;;;;;;9.03;1.60;;;;;;;;;;5097328;28;20204;-63
2023/10/15 02:37:19;;;;;;;5.23;1.27;;;;;;;;;;5104566;28;20201;-63
2023/10/15 02:39:51;;;;;;;3.23;1.33;;;;;;;;;;5117176;28;20574;-63
2023/10/15 02:42:20;;;;;;;2.77;1.67;;;;;;;;;;5099760;28;20705;-63
2023/10/15 02:44:50;;;;;;;2.63;0.90;;;;;;;;;;5107654;28;20288;-64
2023/10/15 02:47:28;;;;;;;3.27;1.13;;;;;;;;;;5118219;28;20228;-63
2023/10/15 02:50:00;;;;;;;3.53;1.30;;;;;;;;;;5105877;28;20633;-63
2023/10/15 02:52:35;;;;;;;2.87;1.20;;;;;;;;;;5097151;28;20214;-63
2023/10/15 02:55:10;;;;;;;3.10;1.30;;;;;;;;;;5097177;28;20201;-63
2023/10/15 02:57:40;;;;;;;2.07;0.93;;;;;;;;;;5097815;28;20212;-63
2023/10/15 03:00:18;;;;;;;2.13;1.20;;;;;;;;;;5103727;28;20304;-63
2023/10/15 03:02:46;;;;;;;4.23;1.30;;;;;;;;;;5097532;28;20755;-63
2023/10/15 03:05:15;;;;;;;5.77;1.80;;;;;;;;;;5097132;28;20205;-63
2023/10/15 03:07:44;;;;;;;4.93;1.20;;;;;;;;;;5097777;28;20228;-63
2023/10/15 03:10:12;;;;;;;5.27;1.50;;;;;;;;;;5105746;28;20683;-63
2023/10/15 03:12:44;;;;;;;7.47;1.30;;;;;;;;;;5118125;28;20246;-63
2023/10/15 03:15:13;;;;;;;2.90;1.43;;;;;;;;;;5116666;28;20547;-63
2023/10/15 03:17:41;;;;;;;4.17;1.53;;;;;;;;;;5116685;28;20233;-64
2023/10/15 03:20:25;;;;;;;2.70;1.00;;;;;;;;;;5097329;28;20302;-63
2023/10/15 03:22:58;;;;;;;3.70;1.47;;;;;;;;;;5096752;28;20201;-63
2023/10/15 03:25:33;;;;;;;5.80;1.37;;;;;;;;;;5097196;28;20641;-63
2023/10/15 03:28:07;;;;;;;3.30;1.10;;;;;;;;;;5117133;28;20205;-63
2023/10/15 03:30:35;;;;;;;3.97;1.30;;;;;;;;;;5115797;28;20296;-63
2023/10/15 03:33:03;;;;;;;4.07;1.27;;;;;;;;;;5121841;28;20273;-63
2023/10/15 03:35:37;;;;;;;5.03;1.33;;;;;;;;;;5121029;28;20211;-63
2023/10/15 03:38:06;;;;;;;3.30;1.20;;;;;;;;;;5114768;28;20205;-63
2023/10/15 03:40:41;;;;;;;1.20;0.87;;;;;;;;;;5107577;28;20225;-63
2023/10/15 03:43:16;;;;;;;5.03;1.30;;;;;;;;;;5101530;28;20301;-63
2023/10/15 03:45:51;;;;;;;2.87;1.30;;;;;;;;;;5118437;28;20556;-63
2023/10/15 03:48:21;;;;;;;5.67;1.67;;;;;;;;;;5118533;28;20208;-63
2023/10/15 03:50:55;;;;;;;2.87;1.03;;;;;;;;;;5100809;28;20278;-63
2023/10/15 03:53:27;;;;;;;4.30;1.20;;;;;;;;;;5100333;28;20201;-63
2023/10/15 03:55:56;;;;;;;2.57;1.30;;;;;;;;;;5113533;28;20287;-63
2023/10/15 03:58:26;;;;;;;3.97;1.27;;;;;;;;;;5121297;28;20211;-63
2023/10/15 04:01:05;;;;;;;5.67;1.30;;;;;;;;;;5107356;28;20233;-63
2023/10/15 04:03:35;;;;;;;3.53;1.13;;;;;;;;;;5116925;28;20212;-63
2023/10/15 04:06:05;;;;;;;2.47;1.40;;;;;;;;;;5105197;28;20208;-63
2023/10/15 04:08:33;;;;;;;2.97;1.20;;;;;;;;;;5101482;28;20265;-63
2023/10/15 04:11:02;;;;;;;3.40;1.30;;;;;;;;;;5100560;28;20235;-63
2023/10/15 04:13:31;;;;;;;5.93;1.63;;;;;;;;;;5100679;28;20659;-63
2023/10/15 04:15:59;;;;;;;3.73;1.40;;;;;;;;;;5100637;28;20209;-63
2023/10/15 04:18:29;;;;;;;3.17;1.20;;;;;;;;;;5100893;28;20706;-63
2023/10/15 04:20:58;;;;;;;3.40;1.47;;;;;;;;;;5100661;28;20225;-63
2023/10/15 04:23:34;;;;;;;6.83;1.70;;;;;;;;;;5100686;28;20205;-63
2023/10/15 04:26:11;;;;;;;6.13;1.47;;;;;;;;;;5100558;28;20270;-63
2023/10/15 04:28:41;;;;;;;4.53;1.37;;;;;;;;;;5100516;28;20205;-63
2023/10/15 04:31:11;;;;;;;3.67;1.23;;;;;;;;;;5114706;28;20635;-63
2023/10/15 04:33:41;;;;;;;2.37;1.20;;;;;;;;;;5119828;28;20563;-63
2023/10/15 04:36:09;;;;;;;6.20;1.60;;;;;;;;;;5120952;28;20208;-62
2023/10/15 04:38:38;;;;;;;6.90;1.70;;;;;;;;;;5110271;28;20229;-62
2023/10/15 04:41:06;;;;;;;7.57;1.67;;;;;;;;;;5113218;28;20220;-62
2023/10/15 04:43:42;;;;;;;5.13;1.53;;;;;;;;;;5119405;28;20233;-63
2023/10/15 04:46:17;;;;;;;3.83;1.33;;;;;;;;;;5120559;28;20744;-62
2023/10/15 04:48:46;;;;;;;4.63;1.87;;;;;;;;;;5119677;27;20193;-63
2023/10/15 04:51:14;;;;;;;2.40;1.10;;;;;;;;;;5114641;28;20229;-63
2023/10/15 04:53:44;;;;;;;5.20;1.47;;;;;;;;;;5099019;28;20198;-63
2023/10/15 04:56:12;;;;;;;4.47;1.20;;;;;;;;;;5099850;28;20206;-63
2023/10/15 04:58:40;;;;;;;6.87;1.70;;;;;;;;;;5103092;28;20276;-63
2023/10/15 05:01:09;;;;;;;3.07;1.27;;;;;;;;;;5110183;28;20221;-63
2023/10/15 05:03:38;;;;;;;3.07;1.27;;;;;;;;;;5119634;28;20287;-63
2023/10/15 05:06:10;;;;;;;2.23;1.40;;;;;;;;;;5099891;28;20641;-63
2023/10/15 05:08:40;;;;;;;8.13;1.57;;;;;;;;;;5097992;28;20252;-63
2023/10/15 05:11:08;;;;;;;7.53;1.77;;;;;;;;;;5099004;28;20232;-63
2023/10/15 05:13:36;;;;;;;2.83;1.30;;;;;;;;;;5102514;28;20645;-63
2023/10/15 05:16:05;;;;;;;8.60;2.23;;;;;;;;;;5118508;27;20236;-63
2023/10/15 05:18:33;;;;;;;9.03;2.33;;;;;;;;;;5127743;27;20216;-63
2023/10/15 05:21:02;;;;;;;5.93;2.13;;;;;;;;;;5123243;27;20768;-63
2023/10/15 05:23:30;;;;;;;5.20;1.80;;;;;;;;;;5130414;27;20231;-63
2023/10/15 05:25:58;;;;;;;3.67;2.10;;;;;;;;;;5120574;27;20284;-63
2023/10/15 05:28:29;;;;;;;5.27;1.90;;;;;;;;;;5128267;27;20252;-63
2023/10/15 05:30:58;;;;;;;8.60;2.57;;;;;;;;;;5114329;27;20246;-63
2023/10/15 05:33:26;;;;;;;9.77;2.03;;;;;;;;;;5123891;27;20197;-63
2023/10/15 05:35:55;;;;;;;5.80;2.00;;;;;;;;;;5121137;27;20208;-63
2023/10/15 05:38:26;;;;;;;6.00;2.40;;;;;;;;;;5123305;27;20200;-63
2023/10/15 05:40:57;;;;;;;5.70;2.27;;;;;;;;;;5126643;27;20270;-63
2023/10/15 05:43:26;;;;;;;11.77;2.50;;;;;;;;;;5126315;27;20235;-64
2023/10/15 05:45:54;;;;;;;6.30;2.17;;;;;;;;;;5119493;27;20245;-63
2023/10/15 05:48:23;;;;;;;5.30;2.10;;;;;;;;;;5127732;27;20220;-63
2023/10/15 05:50:51;;;;;;;3.93;1.90;;;;;;;;;;5119607;27;20226;-62
2023/10/15 05:53:19;;;;;;;8.43;2.37;;;;;;;;;;5119778;27;20208;-62
2023/10/15 05:55:48;;;;;;;5.10;2.07;;;;;;;;;;5124009;27;20255;-63
2023/10/15 05:58:16;;;;;;;3.90;2.10;;;;;;;;;;5129443;27;20479;-63
2023/10/15 06:00:44;;;;;;;5.83;2.23;;;;;;;;;;5124554;27;20258;-63
2023/10/15 06:03:14;;;;;;;5.83;1.70;;;;;;;;;;5115235;27;20205;-62
2023/10/15 06:05:42;;;;;;;4.17;2.10;;;;;;;;;;5098382;28;20209;-64
2023/10/15 06:08:10;;;;;;;5.90;2.10;;;;;;;;;;5121201;27;20315;-63
2023/10/15 06:10:38;;;;;;;9.17;2.27;;;;;;;;;;5125265;27;20221;-63
2023/10/15 06:13:09;;;;;;;7.40;2.30;;;;;;;;;;5120788;27;20261;-62
2023/10/15 06:15:38;;;;;;;7.57;1.97;;;;;;;;;;5107047;27;20205;-63
2023/10/15 06:18:06;;;;;;;4.50;1.80;;;;;;;;;;5098683;28;20265;-64
2023/10/15 06:20:34;;;;;;;4.90;1.47;;;;;;;;;;5098363;28;20221;-63
2023/10/15 06:23:07;;;;;;;6.73;1.73;;;;;;;;;;5098425;28;20241;-64
2023/10/15 06:25:38;;;;;;;3.67;1.60;;;;;;;;;;5114317;27;20223;-62
2023/10/15 06:28:11;;;;;;;7.07;1.50;;;;;;;;;;5128048;27;20221;-64
2023/10/15 06:30:39;;;;;;;5.87;1.57;;;;;;;;;;5120079;27;20216;-62
2023/10/15 06:33:07;;;;;;;2.37;1.43;;;;;;;;;;5128510;27;20197;-63
2023/10/15 06:35:35;;;;;;;3.30;1.60;;;;;;;;;;5127476;27;20201;-65
2023/10/15 06:38:03;;;;;;;4.50;1.80;;;;;;;;;;5122192;27;20200;-64
2023/10/15 06:40:32;;;;;;;3.03;1.23;;;;;;;;;;5127777;27;20227;-63
2023/10/15 06:43:01;;;;;;;6.90;1.50;;;;;;;;;;5122934;27;20223;-63
2023/10/15 06:45:31;;;;;;;4.17;1.53;;;;;;;;;;5127225;27;20203;-65
2023/10/15 06:48:00;;;;;;;8.87;1.23;;;;;;;;;;5119954;27;20220;-65
2023/10/15 06:50:29;;;;;;;4.43;1.20;;;;;;;;;;5103046;27;22234;-65
2023/10/15 06:52:57;;;;;;;5.37;1.73;;;;;;;;;;5093115;28;20611;-64
2023/10/15 06:55:25;;;;;;;5.90;1.73;;;;;;;;;;5099047;28;20205;-64
2023/10/15 06:57:54;;;;;;;10.03;2.10;;;;;;;;;;5097354;28;20312;-64
2023/10/15 07:00:22;;;;;;;4.10;1.53;;;;;;;;;;5108328;28;20212;-64
2023/10/15 07:02:52;;;;;;;5.23;2.20;;;;;;;;;;5118727;28;20254;-65
2023/10/15 07:05:23;;;;;;;1.50;1.23;;;;;;;;;;5107578;28;20682;-65
2023/10/15 07:07:51;;;;;;;3.03;1.63;;;;;;;;;;5101461;28;20320;-65
2023/10/15 07:10:21;;;;;;;7.03;1.50;;;;;;;;;;5113097;28;20311;-63
2023/10/15 07:12:50;;;;;;;2.40;1.43;;;;;;;;;;5115246;28;20258;-63
2023/10/15 07:15:20;;;;;;;5.47;1.67;;;;;;;;;;5101483;28;20205;-65
2023/10/15 07:17:50;;;;;;;1.43;1.10;;;;;;;;;;5101610;28;20259;-65
2023/10/15 07:20:21;;;;;;;4.33;1.67;;;;;;;;;;5108593;28;20236;-64
2023/10/15 07:22:50;;;;;;;3.93;1.43;;;;;;;;;;5103257;28;20266;-65
2023/10/15 07:25:19;;;;;;;4.17;1.40;;;;;;;;;;5101298;28;20220;-64
2023/10/15 07:27:48;;;;;;;3.27;1.30;;;;;;;;;;5102196;28;20202;-64
2023/10/15 07:30:17;;;;;;;3.80;1.77;;;;;;;;;;5101363;28;20261;-64
2023/10/15 07:32:45;;;;;;;4.43;1.63;;;;;;;;;;5101818;28;20209;-65
2023/10/15 07:35:15;;;;;;;7.67;1.80;;;;;;;;;;5108362;27;20573;-64
2023/10/15 07:37:46;;;;;;;5.13;1.90;;;;;;;;;;5102432;28;20216;-65
2023/10/15 07:40:18;;;;;;;8.37;1.93;;;;;;;;;;5118874;28;20273;-65
2023/10/15 07:42:48;;;;;;;5.13;1.47;;;;;;;;;;5101575;28;20220;-64
2023/10/15 07:45:16;;;;;;;7.27;1.50;;;;;;;;;;5101294;28;20247;-65
2023/10/15 07:47:45;;;;;;;4.27;1.60;;;;;;;;;;5101460;28;20216;-64
2023/10/15 07:50:14;;;;;;;4.63;1.80;;;;;;;;;;5115136;28;20229;-64
2023/10/15 07:52:42;;;;;;;7.80;1.70;;;;;;;;;;5121736;28;20201;-63
2023/10/15 07:55:12;;;;;;;2.80;1.53;;;;;;;;;;5102588;28;20239;-65
2023/10/15 07:57:40;;;;;;;3.10;1.47;;;;;;;;;;5101100;28;20231;-65
2023/10/15 08:00:10;;;;;;;5.40;1.73;;;;;;;;;;5106865;28;20648;-65
2023/10/15 08:02:39;;;;;;;5.33;1.60;;;;;;;;;;5100219;28;20748;-65
2023/10/15 08:05:08;;;;;;;5.50;1.80;;;;;;;;;;5107899;28;20287;-65
2023/10/15 08:07:38;;;;;;;4.80;1.80;;;;;;;;;;5100811;28;20245;-64
2023/10/15 08:10:06;;;;;;;5.00;1.20;;;;;;;;;;5100831;28;20649;-63
2023/10/15 08:12:35;;;;;;;5.87;1.67;;;;;;;;;;5108422;28;20386;-63
2023/10/15 08:15:03;;;;;;;5.13;1.73;;;;;;;;;;5120098;28;20227;-64
2023/10/15 08:17:31;;;;;;;6.27;1.70;;;;;;;;;;5107551;28;20233;-63
2023/10/15 08:19:59;;;;;;;6.27;1.80;;;;;;;;;;5100732;28;20197;-64
2023/10/15 08:22:29;;;;;;;8.83;2.17;;;;;;;;;;5100763;28;20209;-64
2023/10/15 08:24:57;;;;;;;7.73;1.50;;;;;;;;;;5102218;28;20205;-65
2023/10/15 08:27:24;;;;;;;4.00;1.67;;;;;;;;;;5100466;28;20213;-65
2023/10/15 08:29:54;;;;;;;5.67;1.87;;;;;;;;;;5100615;28;20233;-64
2023/10/15 08:32:26;;;;;;;6.80;2.17;;;;;;;;;;5100288;28;20211;-64
2023/10/15 08:34:55;;;;;;;3.37;1.60;;;;;;;;;;5100082;28;20270;-64
2023/10/15 08:37:23;;;;;;;4.00;2.20;;;;;;;;;;5100539;28;20201;-65
2023/10/15 08:39:51;;;;;;;2.93;1.73;;;;;;;;;;5110652;28;20287;-65
2023/10/15 08:42:21;;;;;;;4.53;1.37;;;;;;;;;;5105033;28;20544;-65
2023/10/15 08:44:50;;;;;;;4.10;1.60;;;;;;;;;;5099892;28;20293;-65
2023/10/15 08:47:19;;;;;;;3.97;1.40;;;;;;;;;;5114208;28;20287;-64
2023/10/15 08:49:50;;;;;;;3.47;1.50;;;;;;;;;;5120314;28;20288;-65
2023/10/15 08:52:19;;;;;;;2.67;1.20;;;;;;;;;;5113215;28;20656;-65
2023/10/15 08:54:47;;;;;;;11.97;1.87;;;;;;;;;;5115085;28;20204;-63
2023/10/15 08:57:16;;;;;;;3.27;1.60;;;;;;;;;;5120521;28;20205;-65
2023/10/15 08:59:44;;;;;;;5.07;1.50;;;;;;;;;;5118635;28;20208;-63
2023/10/15 09:02:13;;;;;;;4.03;1.50;;;;;;;;;;5099946;28;20208;-61
2023/10/15 09:04:45;;;;;;;5.03;1.33;;;;;;;;;;5098838;28;20201;-63
2023/10/15 09:07:14;;;;;;;3.67;1.57;;;;;;;;;;5099389;28;20209;-63
2023/10/15 09:09:43;;;;;;;5.73;2.10;;;;;;;;;;5098387;28;20240;-63
2023/10/15 09:12:12;;;;;;;3.70;1.47;;;;;;;;;;5117212;28;20232;-62
2023/10/15 09:14:42;;;;;;;4.27;1.73;;;;;;;;;;5114219;27;20868;-62
2023/10/15 09:17:11;;;;;;;5.00;1.73;;;;;;;;;;5112301;27;20196;-63
2023/10/15 09:19:39;;;;;;;4.40;1.27;;;;;;;;;;5123579;27;20205;-64
2023/10/15 09:22:14;;;;;;;2.53;1.13;;;;;;;;;;5128627;27;20204;-63
2023/10/15 09:24:42;;;;;;;2.10;1.00;;;;;;;;;;5129361;27;20195;-63
2023/10/15 09:27:10;;;;;;;2.27;1.27;;;;;;;;;;5128790;27;20230;-63
2023/10/15 09:29:38;;;;;;;4.33;1.10;;;;;;;;;;5126576;27;20243;-63
2023/10/15 09:32:06;;;;;;;1.40;0.83;;;;;;;;;;5125113;27;20283;-64
2023/10/15 09:34:37;;;;;;;3.27;0.83;;;;;;;;;;5129472;27;20296;-62
2023/10/15 09:37:06;;;;;;;1.47;1.20;;;;;;;;;;5124200;27;20675;-62
2023/10/15 09:39:38;;;;;;;7.87;1.63;;;;;;;;;;5128611;27;20211;-63
2023/10/15 09:42:06;;;;;;;2.90;1.20;;;;;;;;;;5098539;28;20218;-63
2023/10/15 09:44:35;;;;;;;2.73;0.77;;;;;;;;;;5098368;28;20201;-62
2023/10/15 09:47:03;;;;;;;2.63;1.10;;;;;;;;;;5098736;28;20205;-64
2023/10/15 09:49:32;;;;;;;17.17;12.27;;;;;;;;;;5097687;28;20582;-62
2023/10/15 09:52:02;;;;;;;5.23;1.80;;;;;;;;;;5099021;28;20247;-64
2023/10/15 09:54:32;;;;;;;3.87;1.30;;;;;;;;;;5098981;28;20224;-64
2023/10/15 09:57:02;;;;;;;6.23;1.40;;;;;;;;;;5098440;28;20205;-62
2023/10/15 09:59:31;;;;;;;1.77;1.10;;;;;;;;;;5098570;28;20213;-62
2023/10/15 10:02:05;;;;;;;4.43;1.30;;;;;;;;;;5098434;28;20316;-64
2023/10/15 10:04:42;;;;;;;5.20;1.47;;;;;;;;;;5098349;28;20209;-62
2023/10/15 10:07:47;;;;;;;2.97;1.20;;;;;;;;;;5098675;28;20689;-62
2023/10/15 10:10:37;;;;;;;7.23;1.03;;;;;;;;;;5055579;28;20317;-62
2023/10/15 10:13:12;;;;;;;3.27;1.03;;;;;;;;;;5055939;28;20694;-63
2023/10/15 10:15:49;;;;;;;2.83;1.07;;;;;;;;;;5102005;27;20196;-63
2023/10/15 10:18:17;;;;;;;5.47;0.97;;;;;;;;;;5112113;27;20239;-63
2023/10/15 10:20:48;;;;;;;3.83;0.90;;;;;;;;;;5098319;28;20232;-63
2023/10/15 10:23:17;;;;;;;2.57;1.30;;;;;;;;;;5098066;28;20201;-64
2023/10/15 10:25:46;;;;;;;4.37;1.13;;;;;;;;;;5098467;28;20205;-64
2023/10/15 10:28:16;;;;;;;3.83;1.10;;;;;;;;;;5102791;28;20213;-64
2023/10/15 10:30:53;;;;;;;1.70;1.47;;;;;;;;;;5115673;28;20236;-63
2023/10/15 10:33:55;;;;;;;4.03;1.10;;;;;;;;;;5102720;27;20197;-63
2023/10/15 10:36:26;;;;;;;3.43;0.90;;;;;;;;;;5064464;28;20289;-63
2023/10/15 10:38:59;;;;;;;1.43;0.90;;;;;;;;;;5075281;28;20206;-64
2023/10/15 10:41:38;;;;;;;1.70;0.70;;;;;;;;;;5086984;28;20232;-64
2023/10/15 10:44:08;;;;;;;1.80;1.00;;;;;;;;;;5097582;28;20621;-62
2023/10/15 10:46:53;;;;;;;2.13;1.30;;;;;;;;;;5116982;28;20291;-62
2023/10/15 10:49:28;;;;;;;2.60;1.17;;;;;;;;;;5118457;28;20288;-64
2023/10/15 10:52:06;;;;;;;2.30;1.43;;;;;;;;;;5118032;28;20312;-64
2023/10/15 10:54:36;;;;;;;1.47;0.97;;;;;;;;;;5118167;28;20679;-63
2023/10/15 10:57:14;;;;;;;3.77;1.30;;;;;;;;;;5118112;28;20570;-62
2023/10/15 10:59:42;;;;;;;2.90;1.10;;;;;;;;;;5116919;28;20204;-62
2023/10/15 11:02:14;;;;;;;2.93;1.57;;;;;;;;;;5102134;28;20284;-62
2023/10/15 11:04:43;;;;;;;3.80;1.00;;;;;;;;;;5118202;28;20211;-62
2023/10/15 11:07:13;;;;;;;1.97;1.07;;;;;;;;;;5118043;28;20273;-62
2023/10/15 11:09:42;;;;;;;2.30;1.00;;;;;;;;;;5116875;28;20211;-64
2023/10/15 11:12:11;;;;;;;2.07;0.93;;;;;;;;;;5097694;28;20208;-65
2023/10/15 11:14:40;;;;;;;1.67;0.83;;;;;;;;;;5097384;28;20254;-62
2023/10/15 11:17:10;;;;;;;2.90;1.33;;;;;;;;;;5097552;28;20257;-65
2023/10/15 11:19:39;;;;;;;1.97;0.87;;;;;;;;;;5097172;28;20288;-65
2023/10/15 11:22:08;;;;;;;2.53;0.50;;;;;;;;;;5104740;28;20197;-64
2023/10/15 11:24:36;;;;;;;3.07;0.80;;;;;;;;;;5117022;28;20201;-63
2023/10/15 11:27:12;;;;;;;2.23;0.67;;;;;;;;;;5101483;28;20265;-62
2023/10/15 11:29:41;;;;;;;2.83;1.00;;;;;;;;;;5103387;28;20200;-64
2023/10/15 11:32:11;;;;;;;3.33;0.90;;;;;;;;;;5098647;28;20244;-62
2023/10/15 11:34:40;;;;;;;3.50;0.80;;;;;;;;;;5097706;28;20217;-64
2023/10/15 11:37:09;;;;;;;1.10;0.90;;;;;;;;;;5101021;28;20201;-64
2023/10/15 11:39:47;;;;;;;1.60;0.70;;;;;;;;;;5098273;28;20235;-64
2023/10/15 11:42:18;;;;;;;2.37;0.90;;;;;;;;;;5102163;28;20212;-64
2023/10/15 11:44:55;;;;;;;1.10;0.70;;;;;;;;;;5096954;28;20233;-64
2023/10/15 11:47:27;;;;;;;3.73;1.00;;;;;;;;;;5098026;28;20255;-64
2023/10/15 11:49:56;;;;;;;1.60;1.00;;;;;;;;;;5108052;28;20201;-62
2023/10/15 11:52:23;;;;;;;2.17;0.70;;;;;;;;;;5100928;28;20229;-65
2023/10/15 11:54:51;;;;;;;1.20;1.10;;;;;;;;;;5119759;28;20284;-64
2023/10/15 11:57:23;;;;;;;0.80;0.80;;;;;;;;;;5121530;28;20205;-65
2023/10/15 11:59:51;;;;;;;1.60;0.50;;;;;;;;;;5120881;28;20204;-65
2023/10/15 12:02:27;;;;;;;1.13;0.73;;;;;;;;;;5103699;28;20265;-63
2023/10/15 12:05:00;;;;;;;0.70;0.67;;;;;;;;;;5100621;28;20202;-63
2023/10/15 12:07:29;;;;;;;3.70;1.47;;;;;;;;;;5102537;28;20258;-63
2023/10/15 12:09:58;;;;;;;1.00;0.60;;;;;;;;;;5103249;28;20266;-63
2023/10/15 12:12:27;;;;;;;2.70;1.00;;;;;;;;;;5113146;28;20249;-62
2023/10/15 12:14:55;;;;;;;2.07;1.00;;;;;;;;;;5100486;28;20205;-62
2023/10/15 12:17:24;;;;;;;1.40;0.97;;;;;;;;;;5100503;28;20288;-62
2023/10/15 12:19:53;;;;;;;0.80;0.80;;;;;;;;;;5101062;28;20251;-62
2023/10/15 12:22:40;;;;;;;1.27;0.83;;;;;;;;;;5100442;28;20201;-62
2023/10/15 12:25:09;;;;;;;1.63;0.80;;;;;;;;;;5100338;28;20205;-63
2023/10/15 12:27:37;;;;;;;0.60;0.60;;;;;;;;;;5108218;28;20215;-63
2023/10/15 12:30:12;;;;;;;2.40;1.03;;;;;;;;;;5120089;28;20586;-63
2023/10/15 12:32:41;;;;;;;2.27;1.30;;;;;;;;;;5094921;28;20279;-63
2023/10/15 12:35:13;;;;;;;2.57;0.73;;;;;;;;;;5098719;28;20284;-61
2023/10/15 12:37:41;;;;;;;1.83;0.83;;;;;;;;;;5109897;28;20644;-62
2023/10/15 12:40:12;;;;;;;1.03;0.80;;;;;;;;;;5105433;28;20235;-62
2023/10/15 12:42:41;;;;;;;1.33;0.80;;;;;;;;;;5106649;28;20196;-62
2023/10/15 12:45:10;;;;;;;1.20;0.80;;;;;;;;;;5107141;28;20209;-62
2023/10/15 12:47:39;;;;;;;0.63;0.63;;;;;;;;;;5099886;28;20213;-62
2023/10/15 12:50:14;;;;;;;2.90;0.77;;;;;;;;;;5099799;28;20708;-63
2023/10/15 12:52:43;;;;;;;0.40;0.40;;;;;;;;;;5102105;28;20229;-63
2023/10/15 12:55:11;;;;;;;0.50;0.50;;;;;;;;;;5100474;27;20197;-62
2023/10/15 12:57:39;;;;;;;3.13;0.80;;;;;;;;;;5099377;28;20619;-62
2023/10/15 13:00:16;;;;;;;3.87;0.80;;;;;;;;;;5110493;28;20662;-62
2023/10/15 13:02:45;;;;;;;1.67;0.90;;;;;;;;;;5101414;28;20212;-62
2023/10/15 13:05:14;;;;;;;15.13;11.03;;;;;;;;;;5099715;28;20256;-62
2023/10/15 13:07:43;;;;;;;5.90;2.40;;;;;;;;;;5099720;28;20234;-62
2023/10/15 13:10:13;;;;;;;1.93;1.07;;;;;;;;;;5099398;28;20593;-62
2023/10/15 13:12:41;;;;;;;1.00;0.63;;;;;;;;;;5099867;28;20227;-62
2023/10/15 13:15:10;;;;;;;1.67;0.90;;;;;;;;;;5099115;28;20232;-62
2023/10/15 13:17:38;;;;;;;0.60;0.60;;;;;;;;;;5099455;28;20264;-62
2023/10/15 13:20:07;;;;;;;2.93;1.00;;;;;;;;;;5099375;28;20229;-62
2023/10/15 13:22:36;;;;;;;2.37;0.87;;;;;;;;;;5099621;28;20255;-62
2023/10/15 13:25:04;;;;;;;0.83;0.63;;;;;;;;;;5099343;28;20209;-62
2023/10/15 13:27:33;;;;;;;1.33;0.70;;;;;;;;;;5099482;28;20207;-62
2023/10/15 13:30:01;;;;;;;1.83;0.57;;;;;;;;;;5098905;28;20223;-62
2023/10/15 13:32:30;;;;;;;2.63;0.70;;;;;;;;;;5099012;28;20312;-62
2023/10/15 13:34:58;;;;;;;1.20;0.70;;;;;;;;;;5100842;28;20212;-62
2023/10/15 13:37:26;;;;;;;0.50;0.50;;;;;;;;;;5117968;28;20205;-62
2023/10/15 13:39:56;;;;;;;0.83;0.57;;;;;;;;;;5102251;28;20278;-62
2023/10/15 13:42:24;;;;;;;1.53;0.60;;;;;;;;;;5108203;28;20197;-62
2023/10/15 13:44:53;;;;;;;0.90;0.67;;;;;;;;;;5108076;28;20196;-62
2023/10/15 13:47:21;;;;;;;1.80;0.80;;;;;;;;;;5119539;28;20236;-62
2023/10/15 13:49:49;;;;;;;1.70;0.60;;;;;;;;;;5102419;28;20204;-62
2023/10/15 13:52:17;;;;;;;1.53;0.63;;;;;;;;;;5104336;28;20229;-62
2023/10/15 13:54:45;;;;;;;1.20;0.70;;;;;;;;;;5119011;28;20545;-62
2023/10/15 13:57:15;;;;;;;4.87;1.23;;;;;;;;;;5119280;28;20268;-62
2023/10/15 13:59:42;;;;;;;2.00;0.63;;;;;;;;;;5118647;28;20215;-62
2023/10/15 14:02:13;;;;;;;1.80;0.50;;;;;;;;;;5118743;28;20200;-62
2023/10/15 14:04:43;;;;;;;1.17;0.63;;;;;;;;;;5119144;28;20287;-63
2023/10/15 14:07:11;;;;;;;0.53;0.50;;;;;;;;;;5118800;28;20243;-63
2023/10/15 14:09:39;;;;;;;3.30;0.83;;;;;;;;;;5109990;28;20284;-62
2023/10/15 14:12:07;;;;;;;1.03;0.50;;;;;;;;;;5113140;27;20621;-62
2023/10/15 14:14:36;;;;;;;1.60;0.63;;;;;;;;;;5098365;28;20213;-62
2023/10/15 14:17:04;;;;;;;1.67;0.60;;;;;;;;;;5098495;28;20677;-62
2023/10/15 14:19:33;;;;;;;3.70;1.00;;;;;;;;;;5098345;28;20231;-62
2023/10/15 14:22:01;;;;;;;2.97;1.07;;;;;;;;;;5105109;28;20726;-62
2023/10/15 14:24:29;;;;;;;1.17;0.53;;;;;;;;;;5118668;28;20251;-62
2023/10/15 14:26:57;;;;;;;2.10;0.73;;;;;;;;;;5106934;28;20342;-62
2023/10/15 14:29:25;;;;;;;1.00;0.60;;;;;;;;;;5097502;28;20229;-62
2023/10/15 14:31:54;;;;;;;0.97;0.50;;;;;;;;;;5097198;28;20558;-62
2023/10/15 14:34:22;;;;;;;1.77;0.60;;;;;;;;;;5099977;28;20205;-62
2023/10/15 14:36:53;;;;;;;1.27;0.47;;;;;;;;;;5117376;28;20201;-62
2023/10/15 14:39:23;;;;;;;2.67;0.90;;;;;;;;;;5117504;28;20264;-62
2023/10/15 14:41:50;;;;;;;3.00;0.80;;;;;;;;;;5113206;27;20222;-62
2023/10/15 14:44:19;;;;;;;3.43;0.53;;;;;;;;;;5118407;27;20238;-62
2023/10/15 14:46:47;;;;;;;2.07;0.83;;;;;;;;;;5122929;27;20284;-62
2023/10/15 14:49:17;;;;;;;1.70;0.73;;;;;;;;;;5126835;27;20287;-62
2023/10/15 14:51:45;;;;;;;2.80;0.87;;;;;;;;;;5123320;27;20252;-62
2023/10/15 14:54:13;;;;;;;0.50;0.50;;;;;;;;;;5124826;27;20321;-62
2023/10/15 14:56:40;;;;;;;3.53;0.70;;;;;;;;;;5122845;27;20228;-62
2023/10/15 14:59:08;;;;;;;0.87;0.60;;;;;;;;;;5122090;27;20200;-62
2023/10/15 15:01:36;;;;;;;0.80;0.77;;;;;;;;;;5117451;27;20221;-62